Terminal Aerodrome Forecast
Issued by NWS

Current Version | Previous Version | Text Only | Print | Product List | Glossary On
Versions: 1 2 3 4 5 6 7 8 9 10 11 12
000
FTUS42 TJSJ 271700
TAFIST
TAF
TIST 271740Z 2718/2818 13015G20KT P6SM SCT025
     FM272300 09008KT P6SM FEW025
     FM281300 13013KT P6SM SCT025=

USA.gov is the U.S. government's official web portal to all federal, state and local government web resources and services.